• Join FlightAware (Why Join?)
  • Login
  • US Flag 
01:41AM EDT


 

Airport Tracker/Info


-or-


 

Live Flight TrackerFlight Track Log ✈ N902FR ✈ 21-May-2012 ✈ KDEN - KSEA

Flight Track Log - Related Links

Times and Time Zones

All times are in EDT time to prevent confusion due to time zone crossing. See the N902FR flight status page for this flight to view local times or setup timezone preferences in your user account.

Time Position Orientation Groundspeed Altitude Reporting Facility
EDT Latitude Longitude Course Direction KTS MPH feet Rate Location/Type
06:43PM 39.8500 -104.7500 288° West 192 221 6,200  Level Denver TRACON
06:44PM 39.8667 -104.8167 349° North 229 264 7,500 1,380 Climbing Denver TRACON
06:45PM 39.9333 -104.8333 351° North 282 325 9,200 2,400 Climbing Denver TRACON
06:46PM 40.0167 -104.8500 343° North 286 329 12,100 2,880 Climbing Denver TRACON
06:48PM 40.1042 -104.8842 347° North 255 293 15,800 2,040 Climbing Denver Center
06:49PM 40.1911 -104.9094 348° North 311 358 17,100 1,740 Climbing Denver Center
06:50PM 40.2786 -104.9333 348° North 322 371 19,500 1,980 Climbing Denver Center
06:51PM 40.3703 -104.9594 348° North 317 365 21,300 1,320 Climbing Denver Center
06:52PM 40.4681 -104.9869 348° North 362 417 22,300 1,320 Climbing Denver Center
06:53PM 40.5792 -105.0186 348° North 374 430 24,100 1,500 Climbing Denver Center
06:54PM 40.6806 -105.0475 342° North 386 444 25,500 1,320 Climbing Denver Center
06:55PM 40.7853 -105.0917 320° Northwest 393 452 26,900 1,380 Climbing Denver Center
06:56PM 40.8875 -105.2036 319° Northwest 410 472 28,400 1,200 Climbing Denver Center
06:57PM 40.9750 -105.3036 319° Northwest 411 473 29,500 1,140 Climbing Denver Center
06:58PM 41.0700 -105.4119 319° Northwest 419 482 30,800 1,080 Climbing Denver Center
06:59PM 41.1572 -105.5114 319° Northwest 426 490 31,800 1,320 Climbing Denver Center
07:00PM 41.2572 -105.6283 316° Northwest 428 493 33,600 1,320 Climbing Denver Center
07:01PM 41.3375 -105.7331 305° West 427 491 34,600 960 Climbing Denver Center
07:02PM 41.4097 -105.8722 302° West 416 479 35,600 900 Climbing Denver Center
07:03PM 41.4683 -105.9978 302° West 416 479 36,500 960 Climbing Denver Center
07:04PM 41.5350 -106.1411 302° West 410 472 37,600 660 Climbing Denver Center
07:05PM 41.5922 -106.2631 302° West 406 467 37,900 180 Climbing Denver Center
07:06PM 41.6586 -106.4069 302° West 407 468 38,000  Climbing Denver Center
07:07PM 41.7208 -106.5406 302° West 407 468 38,000  Level Denver Center
07:08PM 41.7789 -106.6675 301° West 414 476 38,000  Level Denver Center
07:10PM 41.8458 -106.8150 300° West 415 478 38,000  Level Denver Center
07:10PM 41.8819 -106.8981 301° West 413 475 38,000  Level Salt Lake Center
07:11PM 41.9489 -107.0453 302° West 414 476 38,000  Level Salt Lake Center
07:12PM 42.0069 -107.1725 298° West 416 479 38,000  Level Salt Lake Center
07:13PM 42.0658 -107.3250 297° West 415 478 38,000  Level Salt Lake Center
07:14PM 42.1153 -107.4567 297° West 413 475 38,000  Level Salt Lake Center
07:15PM 42.1733 -107.6097 298° West 413 475 38,000  Level Salt Lake Center
07:16PM 42.2242 -107.7411 297° West 414 476 38,000  Level Salt Lake Center
07:18PM 42.2828 -107.8964 297° West 416 479 38,000  Level Salt Lake Center
07:19PM 42.3331 -108.0294 297° West 416 479 38,000  Level Salt Lake Center
07:20PM 42.3911 -108.1847 300° West 416 479 38,000  Level Salt Lake Center
07:21PM 42.4461 -108.3153 300° West 418 481 38,000  Level Salt Lake Center
07:22PM 42.5103 -108.4664 299° West 416 479 38,000  Level Salt Lake Center
07:23PM 42.5636 -108.5981 299° West 417 480 38,000  Level Salt Lake Center
07:24PM 42.6256 -108.7472 300° West 412 474 38,000  Level Salt Lake Center
07:25PM 42.6783 -108.8728 299° West 407 468 38,000  Level Salt Lake Center
07:26PM 42.7417 -109.0258 299° West 412 474 38,100  Climbing Salt Lake Center
07:27PM 42.7967 -109.1614 299° West 421 484 38,100  Level Salt Lake Center
07:28PM 42.8611 -109.3175 298° West 425 489 38,100 -60 Level Salt Lake Center
07:29PM 42.9147 -109.4528 299° West 424 488 38,000 -60 Descending Salt Lake Center
07:30PM 42.9781 -109.6108 299° West 419 482 38,000  Level Salt Lake Center
07:31PM 43.0311 -109.7414 298° West 414 476 38,000  Level Salt Lake Center
07:32PM 43.0922 -109.8958 298° West 411 473 38,000  Level Salt Lake Center
07:33PM 43.1425 -110.0247 299° West 405 466 38,000  Level Salt Lake Center
07:34PM 43.2022 -110.1750 299° West 402 463 38,000  Level Salt Lake Center
07:35PM 43.2514 -110.2978 298° West 403 464 38,000  Level Salt Lake Center
07:36PM 43.3106 -110.4508 299° West 406 467 38,000  Level Salt Lake Center
07:37PM 43.3653 -110.5886 298° West 407 468 38,000  Level Salt Lake Center
07:38PM 43.4161 -110.7194 298° West 407 468 38,000  Level Salt Lake Center
07:39PM 43.4753 -110.8725 298° West 406 467 38,000  Level Salt Lake Center
07:40PM 43.5256 -111.0056 298° West 408 470 38,000  Level Salt Lake Center
07:41PM 43.5839 -111.1578 298° West 404 465 38,000  Level Salt Lake Center
07:42PM 43.6342 -111.2886 298° West 402 463 38,000  Level Salt Lake Center
07:43PM 43.6922 -111.4406 297° West 401 461 38,000  Level Salt Lake Center
07:44PM 43.7406 -111.5739 298° West 402 463 38,000  Level Salt Lake Center
07:46PM 43.7992 -111.7281 297° West 404 465 38,000  Level Salt Lake Center
07:47PM 43.8483 -111.8603 297° West 403 464 38,000  Level Salt Lake Center
07:48PM 43.9053 -112.0150 297° West 403 464 38,000  Level Salt Lake Center
07:49PM 43.9542 -112.1458 297° West 400 460 38,000  Level Salt Lake Center
07:50PM 44.0108 -112.3003 297° West 400 460 38,000  Level Salt Lake Center
07:51PM 44.0589 -112.4328 297° West 400 460 38,000  Level Salt Lake Center
07:52PM 44.1164 -112.5908 297° West 406 467 38,000  Level Salt Lake Center
07:53PM 44.1642 -112.7228 296° West 401 461 38,000  Level Salt Lake Center
07:54PM 44.2183 -112.8756 296° West 396 456 38,000  Level Salt Lake Center
07:55PM 44.2647 -113.0069 297° West 394 453 38,000  Level Salt Lake Center
07:56PM 44.3203 -113.1622 297° West 397 457 38,000  Level Salt Lake Center
07:57PM 44.3681 -113.2958 296° West 399 459 38,000  Level Salt Lake Center
07:58PM 44.4239 -113.4575 297° West 409 471 38,100  Climbing Salt Lake Center
07:59PM 44.4728 -113.5919 296° West 406 467 38,000  Descending Salt Lake Center
08:00PM 44.5261 -113.7458 296° West 400 460 38,200 360 Climbing Salt Lake Center
08:01PM 44.5714 -113.8772 296° West 395 455 38,800 360 Climbing Salt Lake Center
08:02PM 44.6242 -114.0292 296° West 392 451 39,000 60 Climbing Salt Lake Center
08:03PM 44.6703 -114.1603 296° West 392 451 39,000  Level Salt Lake Center
08:05PM 44.7686 -114.4514 295° West 398 458 39,000  Level Salt Lake Center
08:06PM 44.8208 -114.6089 295° West 399 459 39,000  Level Salt Lake Center
08:07PM 44.8658 -114.7425 295° West 397 457 39,000  Level Salt Lake Center
08:08PM 44.9183 -114.8994 295° West 397 457 39,000  Level Salt Lake Center
08:09PM 44.9622 -115.0328 295° West 394 453 39,000  Level Salt Lake Center
08:10PM 45.0133 -115.1892 295° West 395 455 39,000  Level Salt Lake Center
08:11PM 45.0578 -115.3233 295° West 395 455 39,000  Level Salt Lake Center
08:12PM 45.1094 -115.4836 295° West 400 460 39,000  Level Salt Lake Center
08:14PM 45.1533 -115.6200 295° West 400 460 39,000  Level Salt Lake Center
08:15PM 45.2050 -115.7803 294° West 401 461 39,000  Level Salt Lake Center
08:16PM 45.2492 -115.9192 294° West 403 464 39,000  Level Salt Lake Center
08:17PM 45.3011 -116.0831 294° West 405 466 39,000  Level Seattle Center
08:18PM 45.3533 -116.2475 294° West 408 470 39,000  Level Seattle Center
08:19PM 45.3894 -116.3639 294° West 409 471 39,100  Climbing Salt Lake Center
08:20PM 45.4411 -116.5278 294° West 408 470 39,000 -60 Descending Salt Lake Center
08:21PM 45.4847 -116.6689 294° West 408 470 39,000  Level Salt Lake Center
08:22PM 45.5364 -116.8372 294° West 412 474 39,000  Level Seattle Center
08:23PM 45.5806 -116.9792 294° West 412 474 39,000  Level Salt Lake Center
08:24PM 45.6317 -117.1472 293° West 413 475 39,000  Level Salt Lake Center
08:25PM 45.6758 -117.2969 294° West 416 479 39,000  Level Seattle Center
08:26PM 45.7228 -117.4497 293° West 419 482 39,000  Level Seattle Center
08:27PM 45.7683 -117.6028 294° West 419 482 39,000  Level Seattle Center
08:28PM 45.8144 -117.7542 293° West 417 480 39,000 -60 Level Seattle Center
08:29PM 45.8592 -117.9069 293° West 416 479 38,900 -60 Descending Seattle Center
08:30PM 45.9033 -118.0581 293° West 413 475 38,900  Level Seattle Center
08:31PM 45.9478 -118.2108 293° West 415 478 38,900  Level Seattle Center
08:32PM 46.0014 -118.3969 293° West 418 481 39,000  Climbing Seattle Center
08:33PM 46.0431 -118.5400 293° West 421 484 39,000  Level Seattle Center
08:34PM 46.0878 -118.6944 292° West 422 486 39,000  Level Seattle Center
08:35PM 46.1306 -118.8483 292° West 420 483 39,000  Level Seattle Center
08:36PM 46.1831 -119.0344 292° West 422 486 39,000  Level Seattle Center
08:37PM 46.2267 -119.1894 292° West 421 484 39,000  Level Seattle Center
08:38PM 46.2708 -119.3458 292° West 423 487 39,000 -360 Level Seattle Center
08:39PM 46.3153 -119.5061 292° West 430 495 38,300 -840 Descending Seattle Center
08:40PM 46.3586 -119.6633 292° West 428 493 37,400 -960 Descending Seattle Center
08:41PM 46.4022 -119.8228 292° West 430 495 36,400 -1,680 Descending Seattle Center
08:42PM 46.4464 -119.9850 291° West 435 501 34,000 -3,060 Descending Seattle Center
08:43PM 46.4994 -120.1861 291° West 445 512 30,200 -2,640 Descending Seattle Center
08:44PM 46.5442 -120.3525 296° West 448 516 28,600 -1,380 Descending Seattle Center
08:45PM 46.5928 -120.4975 304° West 415 478 27,500 -1,140 Descending Seattle Center
08:46PM 46.6522 -120.6261 306° West 393 452 26,300 -1,140 Descending Seattle Center
08:47PM 46.7114 -120.7442 305° West 372 428 25,200 -1,440 Descending Seattle Center
08:48PM 46.7683 -120.8628 304° West 364 419 23,400 -1,620 Descending Seattle Center
08:49PM 46.8225 -120.9789 339° North 355 409 22,000 -1,620 Descending Seattle Center
08:50PM 46.9261 -121.0378 355° North 369 425 20,200 -1,860 Descending Seattle Center
08:51PM 47.0256 -121.0500 283° West 365 420 18,300 -1,620 Descending Seattle Center
08:52PM 47.0403 -121.1444 215° Southwest 273 314 17,000 -660 Descending Seattle Center
08:53PM 46.9792 -121.2072 289° West 257 296 17,000  Level Seattle Center
08:55PM 47.0036 -121.3103 308° West 304 350 17,000  Level Seattle Center
08:55PM 47.0400 -121.3797 303° West 302 348 17,000 -480 Level Seattle Center
08:57PM 47.1011 -121.5183 299° West 294 338 16,100 -1,080 Descending Seattle Center
08:58PM 47.1386 -121.6181 299° West 283 326 14,400 -1,800 Descending Seattle Center
08:59PM 47.1767 -121.7211 299° West 285 328 12,500 -1,320 Descending Seattle Center
09:00PM 47.2189 -121.8314 304° West 287 330 11,800 -1,140 Descending Seattle Center
09:01PM 47.2636 -121.9275 304° West 283 326 10,200 -900 Descending Seattle Center
09:02PM 47.3042 -122.0164 304° West 281 323 10,000 -120 Descending Seattle Center
09:03PM 47.3481 -122.1133 322° Northwest 284 327 10,000 -60 Level Seattle Center
09:04PM 47.4097 -122.1836 358° North 273 314 9,900 -720 Descending Seattle Center
09:05PM 47.4814 -122.1864 360° North 265 305 8,600 -1,380 Descending Seattle Center
09:06PM 47.5639 -122.1867 353° North 256 295 7,000 -1,320 Descending Seattle Center
09:07PM 47.6222 -122.1969 296° West 225 259 6,000 -1,500 Descending Seattle Center
09:08PM 47.6406 -122.2525 241° Southwest 163 188 4,200 -1,200 Descending Seattle Center
09:09PM 47.6194 -122.3092 183° South 163 188 3,500 -720 Descending Seattle Center
09:10PM 47.5867 -122.3119 179° South 159 183 2,900 -840 Descending Seattle Center
09:11PM 47.5419 -122.3106 180° South 160 184 2,000 -900 Descending Seattle Center
09:12PM 47.4997 -122.3108 180° South 150 173 1,200 -780 Descending Seattle Center
09:13PM 47.4642 -122.3108 180° South 122 140 500 -720 Descending Seattle Center